createdAt,value
2018-01-18T00:00:10.982Z,0
2018-01-18T00:01:11.756Z,0
2018-01-18T00:02:11.272Z,0
2018-01-18T00:03:11.587Z,0
2018-01-18T00:04:10.860Z,0
2018-01-18T00:05:11.553Z,0
2018-01-18T00:06:11.589Z,0
2018-01-18T00:07:11.325Z,0
2018-01-18T00:08:11.587Z,0
2018-01-18T00:09:11.352Z,0
2018-01-18T00:10:11.619Z,0
2018-01-18T00:11:11.376Z,0
2018-01-18T00:12:11.634Z,0
2018-01-18T00:13:11.400Z,0
2018-01-18T00:14:11.662Z,0
2018-01-18T00:15:11.931Z,0
2018-01-18T00:16:11.430Z,0
2018-01-18T00:17:11.705Z,0
2018-01-18T00:18:11.458Z,0
2018-01-18T00:19:11.799Z,0
2018-01-18T00:20:11.487Z,0
2018-01-18T00:21:11.756Z,0
2018-01-18T00:22:11.799Z,0
2018-01-18T00:23:11.525Z,0
2018-01-18T00:24:11.280Z,0
2018-01-18T00:25:11.825Z,0
2018-01-18T00:26:11.550Z,0
2018-01-18T00:27:11.315Z,0
2018-01-18T00:28:12.087Z,0
2018-01-18T00:29:11.443Z,0
2018-01-18T00:30:11.100Z,0
2018-01-18T00:31:11.412Z,0
2018-01-18T00:32:11.879Z,0
2018-01-18T00:33:11.891Z,0
2018-01-18T00:34:11.950Z,0
2018-01-18T00:35:11.409Z,0
2018-01-18T00:36:11.422Z,0
2018-01-18T00:37:12.200Z,0
2018-01-18T00:38:11.966Z,0
2018-01-18T00:39:11.461Z,0
2018-01-18T00:40:11.981Z,0
2018-01-18T00:41:11.983Z,0
2018-01-18T00:42:11.492Z,0
2018-01-18T00:43:12.260Z,0
2018-01-18T00:44:11.773Z,0
2018-01-18T00:45:11.528Z,0
2018-01-18T00:46:12.051Z,0
2018-01-18T00:47:11.810Z,0
2018-01-18T00:48:12.132Z,0
2018-01-18T00:49:12.144Z,0
2018-01-18T00:50:12.096Z,0
2018-01-18T00:51:11.858Z,0
2018-01-18T00:52:11.878Z,0
2018-01-18T00:53:11.880Z,0
2018-01-18T00:54:11.900Z,0
2018-01-18T00:55:12.424Z,0
2018-01-18T00:56:11.417Z,0
2018-01-18T00:57:11.931Z,0
2018-01-18T00:58:12.195Z,0
2018-01-18T00:59:12.211Z,0
2018-01-18T01:00:11.739Z,0
2018-01-18T01:01:12.251Z,0
2018-01-18T01:02:12.246Z,0
2018-01-18T01:03:12.005Z,0
2018-01-18T01:04:11.664Z,0
2018-01-18T01:05:12.030Z,0
2018-01-18T01:06:12.291Z,0
2018-01-18T01:07:12.061Z,0
2018-01-18T01:08:12.574Z,0
2018-01-18T01:09:12.339Z,0
2018-01-18T01:10:11.862Z,0
2018-01-18T01:11:12.601Z,0
2018-01-18T01:12:11.607Z,0
2018-01-18T01:13:11.875Z,0
2018-01-18T01:14:12.392Z,0
2018-01-18T01:15:12.408Z,0
2018-01-18T01:16:12.182Z,0
2018-01-18T01:17:12.175Z,0
2018-01-18T01:18:11.928Z,0
2018-01-18T01:19:12.448Z,0
2018-01-18T01:20:12.263Z,0
2018-01-18T01:21:12.472Z,0
2018-01-18T01:22:11.981Z,0
2018-01-18T01:23:12.242Z,0
2018-01-18T01:24:12.507Z,0
2018-01-18T01:25:12.572Z,0
2018-01-18T01:26:12.036Z,0
2018-01-18T01:27:12.317Z,0
2018-01-18T01:28:12.311Z,0
2018-01-18T01:29:12.075Z,0
2018-01-18T01:30:12.590Z,0
2018-01-18T01:31:12.853Z,0
2018-01-18T01:32:12.353Z,0
2018-01-18T01:33:12.614Z,0
2018-01-18T01:34:12.132Z,0
2018-01-18T01:35:12.698Z,0
2018-01-18T01:36:12.158Z,0
2018-01-18T01:37:12.420Z,0
2018-01-18T01:38:12.687Z,0
2018-01-18T01:39:12.699Z,0
2018-01-18T01:40:12.060Z,0
2018-01-18T01:41:11.963Z,0
2018-01-18T01:42:12.750Z,0
2018-01-18T01:43:12.744Z,0
2018-01-18T01:44:12.759Z,0
2018-01-18T01:45:12.618Z,0
2018-01-18T01:46:12.535Z,0
2018-01-18T01:47:12.554Z,0
2018-01-18T01:48:12.806Z,0
2018-01-18T01:49:12.820Z,0
2018-01-18T01:50:12.886Z,0
2018-01-18T01:51:12.864Z,0
2018-01-18T01:52:13.112Z,0
2018-01-18T01:53:12.371Z,0
2018-01-18T01:54:12.898Z,0
2018-01-18T01:55:12.643Z,0
2018-01-18T01:56:12.663Z,0
2018-01-18T01:57:12.172Z,0
2018-01-18T01:58:12.682Z,0
2018-01-18T01:59:12.446Z,0
2018-01-18T02:00:12.954Z,0
2018-01-18T02:01:12.967Z,0
2018-01-18T02:02:13.240Z,0
2018-01-18T02:03:12.740Z,0
2018-01-18T02:04:12.753Z,0
2018-01-18T02:05:12.563Z,0
2018-01-18T02:06:13.024Z,0
2018-01-18T02:07:13.038Z,0
2018-01-18T02:08:13.059Z,0
2018-01-18T02:09:12.813Z,0
2018-01-18T02:10:13.076Z,0
2018-01-18T02:11:13.361Z,0
2018-01-18T02:12:12.598Z,0
2018-01-18T02:13:12.921Z,0
2018-01-18T02:14:12.869Z,0
2018-01-18T02:15:13.135Z,0
2018-01-18T02:16:12.645Z,0
2018-01-18T02:17:12.682Z,0
2018-01-18T02:18:12.918Z,0
2018-01-18T02:19:13.179Z,0
2018-01-18T02:20:13.503Z,0
2018-01-18T02:21:12.960Z,0
2018-01-18T02:22:13.227Z,0
2018-01-18T02:23:12.728Z,0
2018-01-18T02:24:13.254Z,0
2018-01-18T02:25:12.758Z,0
2018-01-18T02:26:13.034Z,0
2018-01-18T02:27:13.289Z,0
2018-01-18T02:28:13.548Z,0
2018-01-18T02:29:13.320Z,0
2018-01-18T02:30:13.328Z,0
2018-01-18T02:31:13.322Z,0
2018-01-18T02:32:12.833Z,0
2018-01-18T02:33:13.096Z,0
2018-01-18T02:34:12.857Z,0
2018-01-18T02:35:13.676Z,0
2018-01-18T02:36:12.881Z,0
2018-01-18T02:37:13.473Z,0
2018-01-18T02:38:13.234Z,0
2018-01-18T02:39:13.427Z,0
2018-01-18T02:40:13.696Z,0
2018-01-18T02:41:13.453Z,0
2018-01-18T02:42:13.467Z,0
2018-01-18T02:43:13.480Z,0
2018-01-18T02:44:13.235Z,0
2018-01-18T02:45:13.243Z,0
2018-01-18T02:46:13.516Z,0
2018-01-18T02:47:13.522Z,0
2018-01-18T02:48:12.779Z,0
2018-01-18T02:49:13.295Z,0
2018-01-18T02:50:13.616Z,0
2018-01-18T02:51:13.822Z,0
2018-01-18T02:52:13.582Z,0
2018-01-18T02:53:13.342Z,0
2018-01-18T02:54:13.353Z,0
2018-01-18T02:55:12.866Z,0
2018-01-18T02:56:13.155Z,0
2018-01-18T02:57:13.403Z,0
2018-01-18T02:58:13.910Z,0
2018-01-18T02:59:12.908Z,0
2018-01-18T03:00:13.181Z,0
2018-01-18T03:01:13.692Z,0
2018-01-18T03:02:13.196Z,0
2018-01-18T03:03:13.467Z,0
2018-01-18T03:04:13.974Z,0
2018-01-18T03:05:13.285Z,0
2018-01-18T03:06:13.498Z,0
2018-01-18T03:07:13.260Z,0
2018-01-18T03:08:14.022Z,0
2018-01-18T03:09:13.301Z,0
2018-01-18T03:10:13.294Z,0
2018-01-18T03:11:13.306Z,0
2018-01-18T03:12:13.320Z,0
2018-01-18T03:13:13.585Z,0
2018-01-18T03:14:13.369Z,0
2018-01-18T03:15:13.961Z,0
2018-01-18T03:16:13.869Z,0
2018-01-18T03:17:13.638Z,0
2018-01-18T03:18:14.152Z,0
2018-01-18T03:19:13.653Z,0
2018-01-18T03:20:13.974Z,0
2018-01-18T03:21:14.186Z,0
2018-01-18T03:22:13.695Z,0
2018-01-18T03:23:13.961Z,0
2018-01-18T03:24:13.719Z,0
2018-01-18T03:25:13.746Z,0
2018-01-18T03:26:14.241Z,0
2018-01-18T03:27:13.762Z,0
2018-01-18T03:28:13.769Z,0
2018-01-18T03:29:13.523Z,0
2018-01-18T03:30:13.788Z,0
2018-01-18T03:31:13.808Z,0
2018-01-18T03:32:13.814Z,0
2018-01-18T03:33:13.820Z,0
2018-01-18T03:34:13.834Z,0
2018-01-18T03:35:13.913Z,0
2018-01-18T03:36:13.614Z,0
2018-01-18T03:37:14.376Z,0
2018-01-18T03:38:13.629Z,0
2018-01-18T03:39:14.144Z,0
2018-01-18T03:40:13.675Z,0
2018-01-18T03:41:13.668Z,0
2018-01-18T03:42:13.930Z,0
2018-01-18T03:43:14.196Z,0
2018-01-18T03:44:13.710Z,0
2018-01-18T03:45:13.716Z,0
2018-01-18T03:46:14.244Z,0
2018-01-18T03:47:14.246Z,0
2018-01-18T03:48:13.758Z,0
2018-01-18T03:49:14.275Z,0
2018-01-18T03:50:14.586Z,0
2018-01-18T03:51:14.046Z,0
2018-01-18T03:52:14.311Z,0
2018-01-18T03:53:14.397Z,0
2018-01-18T03:54:14.076Z,0
2018-01-18T03:55:14.093Z,0
2018-01-18T03:56:14.115Z,0
2018-01-18T03:57:14.118Z,0
2018-01-18T03:58:14.373Z,0
2018-01-18T03:59:13.887Z,0
2018-01-18T04:00:13.647Z,0
2018-01-18T04:01:14.158Z,0
2018-01-18T04:02:14.683Z,0
2018-01-18T04:03:14.436Z,0
2018-01-18T04:04:14.203Z,0
2018-01-18T04:05:14.519Z,0
2018-01-18T04:06:14.472Z,0
2018-01-18T04:07:14.742Z,0
2018-01-18T04:08:14.497Z,0
2018-01-18T04:09:14.006Z,0
2018-01-18T04:10:14.424Z,0
2018-01-18T04:11:14.055Z,0
2018-01-18T04:12:14.300Z,0
2018-01-18T04:13:14.316Z,0
2018-01-18T04:14:14.573Z,0
2018-01-18T04:15:14.587Z,0
2018-01-18T04:16:14.600Z,0
2018-01-18T04:17:14.360Z,0
2018-01-18T04:18:14.617Z,0
2018-01-18T04:19:14.885Z,0
2018-01-18T04:20:14.148Z,0
2018-01-18T04:21:14.412Z,0
2018-01-18T04:22:14.419Z,0
2018-01-18T04:23:14.691Z,0
2018-01-18T04:24:14.452Z,0
2018-01-18T04:25:15.016Z,0
2018-01-18T04:26:14.723Z,0
2018-01-18T04:27:14.484Z,0
2018-01-18T04:28:14.492Z,0
2018-01-18T04:29:14.757Z,0
2018-01-18T04:30:14.527Z,0
2018-01-18T04:31:15.071Z,0
2018-01-18T04:32:14.795Z,0
2018-01-18T04:33:14.309Z,0
2018-01-18T04:34:14.572Z,0
2018-01-18T04:35:14.603Z,0
2018-01-18T04:36:15.096Z,0
2018-01-18T04:37:14.361Z,0
2018-01-18T04:38:14.625Z,0
2018-01-18T04:39:14.634Z,0
2018-01-18T04:40:15.206Z,0
2018-01-18T04:41:14.403Z,0
2018-01-18T04:42:15.175Z,0
2018-01-18T04:43:14.430Z,0
2018-01-18T04:44:14.189Z,0
2018-01-18T04:45:14.712Z,0
2018-01-18T04:46:14.731Z,0
2018-01-18T04:47:14.978Z,0
2018-01-18T04:48:14.741Z,0
2018-01-18T04:49:14.503Z,0
2018-01-18T04:50:15.041Z,0
2018-01-18T04:51:14.530Z,0
2018-01-18T04:52:14.799Z,0
2018-01-18T04:53:14.811Z,0
2018-01-18T04:54:14.817Z,0
2018-01-18T04:55:14.884Z,0
2018-01-18T04:56:14.593Z,0
2018-01-18T04:57:14.863Z,0
2018-01-18T04:58:14.868Z,0
2018-01-18T04:59:14.630Z,0
2018-01-18T05:00:15.010Z,0
2018-01-18T05:01:14.665Z,0
2018-01-18T05:02:14.924Z,0
2018-01-18T05:03:14.684Z,0
2018-01-18T05:04:15.198Z,0
2018-01-18T05:05:15.212Z,0
2018-01-18T05:06:15.221Z,0
2018-01-18T05:07:14.739Z,0
2018-01-18T05:08:15.252Z,0
2018-01-18T05:09:15.511Z,0
2018-01-18T05:10:14.772Z,0
2018-01-18T05:11:15.088Z,0
2018-01-18T05:12:15.512Z,0
2018-01-18T05:13:14.553Z,0
2018-01-18T05:14:15.581Z,0
2018-01-18T05:15:15.082Z,0
2018-01-18T05:16:14.853Z,0
2018-01-18T05:17:14.853Z,0
2018-01-18T05:18:15.376Z,0
2018-01-18T05:19:15.387Z,0
2018-01-18T05:20:15.397Z,0
2018-01-18T05:21:14.658Z,0
2018-01-18T05:22:15.427Z,0
2018-01-18T05:23:15.692Z,0
2018-01-18T05:24:15.201Z,0
2018-01-18T05:25:14.961Z,0
2018-01-18T05:26:15.530Z,0
2018-01-18T05:27:15.238Z,0
2018-01-18T05:28:14.742Z,0
2018-01-18T05:29:15.005Z,0
2018-01-18T05:30:15.273Z,0
2018-01-18T05:31:15.788Z,0
2018-01-18T05:32:15.304Z,0
2018-01-18T05:33:15.586Z,0
2018-01-18T05:34:15.074Z,0
2018-01-18T05:35:15.594Z,0
2018-01-18T05:36:15.601Z,0
2018-01-18T05:37:15.614Z,0
2018-01-18T05:38:15.375Z,0
2018-01-18T05:39:15.391Z,0
2018-01-18T05:40:15.651Z,0
2018-01-18T05:41:15.728Z,0
2018-01-18T05:42:15.431Z,0
2018-01-18T05:43:15.950Z,0
2018-01-18T05:44:15.727Z,0
2018-01-18T05:45:15.479Z,0
2018-01-18T05:46:15.483Z,0
2018-01-18T05:47:14.989Z,0
2018-01-18T05:48:15.259Z,0
2018-01-18T05:49:15.269Z,0
2018-01-18T05:50:15.279Z,0
2018-01-18T05:51:15.550Z,0
2018-01-18T05:52:15.304Z,0
2018-01-18T05:53:15.063Z,0
2018-01-18T05:54:15.584Z,0
2018-01-18T05:55:15.848Z,0
2018-01-18T05:56:16.269Z,0
2018-01-18T05:57:15.616Z,0
2018-01-18T05:58:15.634Z,0
2018-01-18T05:59:15.399Z,0
2018-01-18T06:00:15.151Z,0
2018-01-18T06:01:15.919Z,0
2018-01-18T06:02:15.946Z,0
2018-01-18T06:03:15.463Z,0
2018-01-18T06:04:15.973Z,0
2018-01-18T06:05:15.723Z,0
2018-01-18T06:06:15.736Z,0
2018-01-18T06:07:15.762Z,0
2018-01-18T06:08:16.289Z,0
2018-01-18T06:09:16.276Z,0
2018-01-18T06:10:16.298Z,0
2018-01-18T06:11:15.844Z,0
2018-01-18T06:12:15.559Z,0
2018-01-18T06:13:15.824Z,0
2018-01-18T06:14:16.090Z,0
2018-01-18T06:15:15.844Z,0
2018-01-18T06:16:15.866Z,0
2018-01-18T06:17:15.883Z,0
2018-01-18T06:18:15.891Z,0
2018-01-18T06:19:16.407Z,0
2018-01-18T06:20:16.420Z,0
2018-01-18T06:21:16.209Z,0
2018-01-18T06:22:16.193Z,0
2018-01-18T06:23:15.958Z,0
2018-01-18T06:24:15.715Z,0
2018-01-18T06:25:16.255Z,0
2018-01-18T06:26:15.748Z,0
2018-01-18T06:27:15.821Z,0
2018-01-18T06:28:16.022Z,0
2018-01-18T06:29:16.033Z,0
2018-01-18T06:30:15.809Z,0
2018-01-18T06:31:15.826Z,0
2018-01-18T06:32:15.933Z,0
2018-01-18T06:33:16.093Z,0
2018-01-18T06:34:16.608Z,0
2018-01-18T06:35:16.388Z,0
2018-01-18T06:36:16.389Z,0
2018-01-18T06:37:15.642Z,0
2018-01-18T06:38:16.159Z,0
2018-01-18T06:39:16.413Z,0
2018-01-18T06:40:16.681Z,0
2018-01-18T06:41:16.203Z,0
2018-01-18T06:42:16.004Z,0
2018-01-18T06:43:16.476Z,0
2018-01-18T06:44:16.230Z,0
2018-01-18T06:45:16.748Z,0
2018-01-18T06:46:16.514Z,0
2018-01-18T06:47:16.533Z,0
2018-01-18T06:48:16.282Z,0
2018-01-18T06:49:16.302Z,0
2018-01-18T06:50:16.309Z,0
2018-01-18T06:51:16.572Z,0
2018-01-18T06:52:16.343Z,0
2018-01-18T06:53:16.346Z,0
2018-01-18T06:54:16.915Z,0
2018-01-18T06:55:16.385Z,0
2018-01-18T06:56:15.882Z,0
2018-01-18T06:57:16.452Z,0
2018-01-18T06:58:16.416Z,0
2018-01-18T06:59:16.705Z,0
2018-01-18T07:00:16.693Z,0
2018-01-18T07:01:16.458Z,0
2018-01-18T07:02:16.975Z,0
2018-01-18T07:03:16.237Z,5
2018-01-18T07:04:16.759Z,5
2018-01-18T07:05:16.757Z,5
2018-01-18T07:06:16.557Z,5
2018-01-18T07:07:16.536Z,5
2018-01-18T07:08:16.549Z,5
2018-01-18T07:09:16.815Z,5
2018-01-18T07:10:16.582Z,5
2018-01-18T07:11:16.837Z,5
2018-01-18T07:12:16.600Z,5
2018-01-18T07:13:16.678Z,5
2018-01-18T07:14:16.622Z,5
2018-01-18T07:15:16.901Z,5
2018-01-18T07:16:16.397Z,5
2018-01-18T07:17:16.930Z,10
2018-01-18T07:18:16.435Z,10
2018-01-18T07:19:16.944Z,10
2018-01-18T07:20:16.199Z,10
2018-01-18T07:21:16.979Z,10
2018-01-18T07:22:16.981Z,10
2018-01-18T07:23:16.532Z,10
2018-01-18T07:24:17.340Z,15
2018-01-18T07:25:16.768Z,15
2018-01-18T07:26:17.037Z,15
2018-01-18T07:27:17.060Z,15
2018-01-18T07:28:17.366Z,15
2018-01-18T07:29:17.077Z,15
2018-01-18T07:30:17.094Z,15
2018-01-18T07:31:17.107Z,15
2018-01-18T07:32:16.865Z,15
2018-01-18T07:33:16.877Z,15
2018-01-18T07:34:16.384Z,15
2018-01-18T07:35:17.182Z,15
2018-01-18T07:36:17.167Z,15
2018-01-18T07:37:16.940Z,15
2018-01-18T07:38:16.942Z,20
2018-01-18T07:39:16.701Z,20
2018-01-18T07:40:17.648Z,20
2018-01-18T07:41:17.233Z,20
2018-01-18T07:42:16.760Z,20
2018-01-18T07:43:17.562Z,20
2018-01-18T07:44:17.280Z,25
2018-01-18T07:45:17.290Z,25
2018-01-18T07:46:17.308Z,25
2018-01-18T07:47:16.559Z,25
2018-01-18T07:48:17.077Z,25
2018-01-18T07:49:17.346Z,30
2018-01-18T07:50:17.115Z,30
2018-01-18T07:51:16.865Z,35
2018-01-18T07:52:17.382Z,35
2018-01-18T07:53:16.900Z,35
2018-01-18T07:54:17.423Z,35
2018-01-18T07:55:17.434Z,35
2018-01-18T07:56:17.449Z,35
2018-01-18T07:57:17.204Z,35
2018-01-18T07:58:17.269Z,35
2018-01-18T07:59:17.562Z,35
2018-01-18T08:00:17.502Z,35
2018-01-18T08:01:17.506Z,35
2018-01-18T08:02:17.278Z,40
2018-01-18T08:03:17.543Z,40
2018-01-18T08:04:17.803Z,40
2018-01-18T08:05:17.314Z,40
2018-01-18T08:06:17.076Z,40
2018-01-18T08:07:17.595Z,40
2018-01-18T08:08:17.607Z,40
2018-01-18T08:09:17.922Z,40
2018-01-18T08:10:17.642Z,40
2018-01-18T08:11:17.147Z,40
2018-01-18T08:12:17.664Z,40
2018-01-18T08:13:17.678Z,40
2018-01-18T08:14:16.987Z,40
2018-01-18T08:15:17.986Z,40
2018-01-18T08:16:17.781Z,40
2018-01-18T08:17:17.234Z,40
2018-01-18T08:18:17.764Z,40
2018-01-18T08:19:17.764Z,40
2018-01-18T08:20:17.533Z,40
2018-01-18T08:21:17.290Z,40
2018-01-18T08:22:17.811Z,40
2018-01-18T08:23:17.569Z,40
2018-01-18T08:24:17.332Z,40
2018-01-18T08:25:17.844Z,40
2018-01-18T08:26:17.612Z,40
2018-01-18T08:27:17.633Z,40
2018-01-18T08:28:17.651Z,40
2018-01-18T08:29:17.956Z,40
2018-01-18T08:30:17.924Z,40
2018-01-18T08:31:17.938Z,40
2018-01-18T08:32:17.460Z,40
2018-01-18T08:33:17.712Z,40
2018-01-18T08:34:17.729Z,45
2018-01-18T08:35:17.492Z,45
2018-01-18T08:36:18.009Z,45
2018-01-18T08:37:18.038Z,40
2018-01-18T08:38:17.797Z,45
2018-01-18T08:39:18.061Z,45
2018-01-18T08:40:17.828Z,40
2018-01-18T08:41:17.831Z,40
2018-01-18T08:42:17.845Z,45
2018-01-18T08:43:17.858Z,45
2018-01-18T08:44:17.920Z,45
2018-01-18T08:45:17.881Z,45
2018-01-18T08:46:18.151Z,45
2018-01-18T08:47:18.162Z,45
2018-01-18T08:48:18.175Z,50
2018-01-18T08:49:17.684Z,50
2018-01-18T08:50:17.452Z,50
2018-01-18T08:51:17.969Z,50
2018-01-18T08:52:17.479Z,50
2018-01-18T08:53:17.994Z,60
2018-01-18T08:54:18.008Z,65
2018-01-18T08:55:18.280Z,70
2018-01-18T08:56:18.041Z,75
2018-01-18T08:57:18.072Z,70
2018-01-18T08:58:17.821Z,70
2018-01-18T08:59:17.879Z,75
2018-01-18T09:00:17.872Z,70
2018-01-18T09:01:18.110Z,70
2018-01-18T09:02:17.869Z,70
2018-01-18T09:03:17.892Z,60
2018-01-18T09:04:18.680Z,60
2018-01-18T09:05:18.167Z,65
2018-01-18T09:06:18.181Z,65
2018-01-18T09:07:18.446Z,65
2018-01-18T09:08:18.215Z,70
2018-01-18T09:09:17.981Z,80
2018-01-18T09:10:18.532Z,90
2018-01-18T09:11:18.247Z,100
2018-01-18T09:12:18.275Z,115
2018-01-18T09:13:18.268Z,120
2018-01-18T09:14:18.836Z,125
2018-01-18T09:15:18.562Z,125
2018-01-18T09:16:18.574Z,125
2018-01-18T09:17:18.837Z,120
2018-01-18T09:18:18.340Z,120
2018-01-18T09:19:18.353Z,115
2018-01-18T09:20:18.375Z,110
2018-01-18T09:21:18.140Z,110
2018-01-18T09:22:19.031Z,115
2018-01-18T09:23:18.421Z,110
2018-01-18T09:24:18.687Z,115
2018-01-18T09:25:18.449Z,115
2018-01-18T09:26:18.464Z,110
2018-01-18T09:27:18.732Z,110
2018-01-18T09:28:18.492Z,115
2018-01-18T09:29:18.570Z,125
2018-01-18T09:30:18.550Z,140
2018-01-18T09:31:18.538Z,155
2018-01-18T09:32:18.807Z,150
2018-01-18T09:33:18.822Z,140
2018-01-18T09:34:19.081Z,165
2018-01-18T09:35:18.848Z,155
2018-01-18T09:36:18.612Z,135
2018-01-18T09:37:19.136Z,145
2018-01-18T09:38:18.899Z,170
2018-01-18T09:39:19.216Z,180
2018-01-18T09:40:18.926Z,175
2018-01-18T09:41:18.940Z,155
2018-01-18T09:42:18.967Z,165
2018-01-18T09:43:19.218Z,180
2018-01-18T09:44:18.282Z,180
2018-01-18T09:45:18.786Z,180
2018-01-18T09:46:19.015Z,190
2018-01-18T09:47:18.780Z,200
2018-01-18T09:48:19.307Z,205
2018-01-18T09:49:18.809Z,205
2018-01-18T09:50:19.082Z,205
2018-01-18T09:51:19.095Z,220
2018-01-18T09:52:19.108Z,225
2018-01-18T09:53:18.958Z,210
2018-01-18T09:54:19.200Z,205
2018-01-18T09:55:18.907Z,195
2018-01-18T09:56:18.923Z,185
2018-01-18T09:57:18.934Z,175
2018-01-18T09:58:18.710Z,175
2018-01-18T09:59:19.524Z,185
2018-01-18T10:00:18.982Z,195
2018-01-18T10:01:19.004Z,200
2018-01-18T10:02:19.276Z,195
2018-01-18T10:03:19.032Z,180
2018-01-18T10:04:19.294Z,180
2018-01-18T10:05:19.069Z,185
2018-01-18T10:06:19.080Z,190
2018-01-18T10:07:19.347Z,210
2018-01-18T10:08:18.854Z,205
2018-01-18T10:09:19.134Z,175
2018-01-18T10:10:19.139Z,165
2018-01-18T10:11:19.158Z,175
2018-01-18T10:12:19.543Z,190
2018-01-18T10:13:18.934Z,210
2018-01-18T10:14:19.257Z,210
2018-01-18T10:15:19.218Z,200
2018-01-18T10:16:19.486Z,190
2018-01-18T10:17:19.515Z,170
2018-01-18T10:18:19.518Z,150
2018-01-18T10:19:19.276Z,165
2018-01-18T10:20:19.552Z,180
2018-01-18T10:21:19.332Z,180
2018-01-18T10:22:19.826Z,220
2018-01-18T10:23:19.343Z,245
2018-01-18T10:24:19.234Z,245
2018-01-18T10:25:19.696Z,210
2018-01-18T10:26:19.653Z,215
2018-01-18T10:27:18.900Z,225
2018-01-18T10:28:19.438Z,230
2018-01-18T10:29:19.489Z,205
2018-01-18T10:30:19.456Z,200
2018-01-18T10:31:19.725Z,185
2018-01-18T10:32:19.743Z,185
2018-01-18T10:33:19.506Z,200
2018-01-18T10:34:19.517Z,220
2018-01-18T10:35:19.278Z,265
2018-01-18T10:36:19.304Z,320
2018-01-18T10:37:19.310Z,320
2018-01-18T10:38:19.582Z,370
2018-01-18T10:39:19.852Z,375
2018-01-18T10:40:19.867Z,665
2018-01-18T10:41:19.633Z,635
2018-01-18T10:42:19.915Z,310
2018-01-18T10:43:20.045Z,285
2018-01-18T10:44:19.986Z,305
2018-01-18T10:45:19.447Z,285
2018-01-18T10:46:19.487Z,300
2018-01-18T10:47:19.992Z,350
2018-01-18T10:48:20.007Z,410
2018-01-18T10:49:19.526Z,775
2018-01-18T10:50:20.054Z,485
2018-01-18T10:51:20.096Z,880
2018-01-18T10:52:19.818Z,810
2018-01-18T10:53:19.844Z,735
2018-01-18T10:54:19.851Z,695
2018-01-18T10:55:20.372Z,605
2018-01-18T10:56:19.652Z,625
2018-01-18T10:57:20.154Z,395
2018-01-18T10:58:20.173Z,795
2018-01-18T10:59:20.271Z,670
2018-01-18T11:00:19.965Z,385
2018-01-18T11:01:19.725Z,425
2018-01-18T11:02:20.504Z,570
2018-01-18T11:03:20.268Z,375
2018-01-18T11:04:20.030Z,460
2018-01-18T11:05:20.304Z,535
2018-01-18T11:06:20.574Z,455
2018-01-18T11:07:19.832Z,375
2018-01-18T11:08:20.104Z,470
2018-01-18T11:09:20.123Z,335
2018-01-18T11:10:20.399Z,410
2018-01-18T11:11:20.411Z,375
2018-01-18T11:12:20.460Z,380
2018-01-18T11:13:20.712Z,315
2018-01-18T11:14:20.308Z,275
2018-01-18T11:15:20.485Z,285
2018-01-18T11:16:20.500Z,280
2018-01-18T11:17:20.266Z,280
2018-01-18T11:18:20.805Z,300
2018-01-18T11:19:20.554Z,320
2018-01-18T11:20:20.068Z,315
2018-01-18T11:21:20.592Z,305
2018-01-18T11:22:20.358Z,290
2018-01-18T11:23:20.376Z,300
2018-01-18T11:24:20.391Z,305
2018-01-18T11:25:20.684Z,310
2018-01-18T11:26:20.177Z,300
2018-01-18T11:27:20.943Z,300
2018-01-18T11:28:20.458Z,285
2018-01-18T11:29:20.061Z,280
2018-01-18T11:30:20.748Z,280
2018-01-18T11:31:21.014Z,270
2018-01-18T11:32:20.524Z,270
2018-01-18T11:33:21.049Z,270
2018-01-18T11:34:20.820Z,265
2018-01-18T11:35:21.100Z,265
2018-01-18T11:36:20.601Z,265
2018-01-18T11:37:20.871Z,260
2018-01-18T11:38:20.890Z,260
2018-01-18T11:39:21.160Z,255
2018-01-18T11:40:21.179Z,250
2018-01-18T11:41:21.200Z,250
2018-01-18T11:42:21.211Z,260
2018-01-18T11:43:20.974Z,260
2018-01-18T11:44:20.786Z,260
2018-01-18T11:45:21.267Z,260
2018-01-18T11:46:21.026Z,255
2018-01-18T11:47:21.307Z,245
2018-01-18T11:48:20.842Z,245
2018-01-18T11:49:20.822Z,245
2018-01-18T11:50:21.349Z,245
2018-01-18T11:51:20.857Z,245
2018-01-18T11:52:21.384Z,245
2018-01-18T11:53:21.143Z,245
2018-01-18T11:54:21.419Z,240
2018-01-18T11:55:20.931Z,240
2018-01-18T11:56:20.694Z,240
2018-01-18T11:57:21.017Z,245
2018-01-18T11:58:21.246Z,260
2018-01-18T11:59:21.047Z,265
2018-01-18T12:00:21.020Z,270
2018-01-18T12:01:21.531Z,280
2018-01-18T12:02:21.314Z,280
2018-01-18T12:03:21.578Z,280
2018-01-18T12:04:21.183Z,280
2018-01-18T12:05:21.365Z,290
2018-01-18T12:06:21.117Z,305
2018-01-18T12:07:21.130Z,315
2018-01-18T12:08:20.896Z,330
2018-01-18T12:09:21.265Z,325
2018-01-18T12:10:20.929Z,400
2018-01-18T12:11:21.451Z,465
2018-01-18T12:12:21.276Z,685
2018-01-18T12:13:20.984Z,855
2018-01-18T12:14:21.804Z,400
2018-01-18T12:15:21.280Z,755
2018-01-18T12:16:21.547Z,730
2018-01-18T12:17:21.557Z,515
2018-01-18T12:18:21.577Z,500
2018-01-18T12:19:21.594Z,435
2018-01-18T12:20:21.615Z,740
2018-01-18T12:21:21.632Z,580
2018-01-18T12:22:21.701Z,530
2018-01-18T12:23:21.464Z,1160
2018-01-18T12:24:21.783Z,865
2018-01-18T12:25:21.460Z,1540
2018-01-18T12:26:21.732Z,1345
2018-01-18T12:27:21.501Z,1225
2018-01-18T12:28:21.516Z,665
2018-01-18T12:29:21.837Z,775
2018-01-18T12:30:21.809Z,1300
2018-01-18T12:31:21.597Z,535
2018-01-18T12:32:21.655Z,450
2018-01-18T12:33:21.611Z,530
2018-01-18T12:34:22.133Z,1270
2018-01-18T12:35:21.908Z,590
2018-01-18T12:36:21.694Z,2370
2018-01-18T12:37:21.444Z,1710
2018-01-18T12:38:21.466Z,1740
2018-01-18T12:39:21.834Z,1330
2018-01-18T12:40:22.017Z,1960
2018-01-18T12:41:22.285Z,1185
2018-01-18T12:42:21.852Z,1545
2018-01-18T12:43:22.078Z,1380
2018-01-18T12:44:21.642Z,1645
2018-01-18T12:45:21.870Z,2490
2018-01-18T12:46:21.894Z,1575
2018-01-18T12:47:22.425Z,2600
2018-01-18T12:48:21.937Z,1975
2018-01-18T12:49:21.964Z,2395
2018-01-18T12:50:22.241Z,2470
2018-01-18T12:51:22.515Z,2435
2018-01-18T12:52:22.037Z,1565
2018-01-18T12:53:22.567Z,2745
2018-01-18T12:54:21.833Z,2640
2018-01-18T12:55:22.426Z,1710
2018-01-18T12:56:22.636Z,2790
2018-01-18T12:57:22.160Z,380
2018-01-18T12:58:22.182Z,2710
2018-01-18T12:59:22.366Z,345
2018-01-18T13:00:22.238Z,710
2018-01-18T13:01:22.256Z,1170
2018-01-18T13:02:22.833Z,715
2018-01-18T13:03:22.818Z,1765
2018-01-18T13:04:22.334Z,2460
2018-01-18T13:05:22.929Z,2760
2018-01-18T13:06:22.634Z,1235
2018-01-18T13:07:22.914Z,865
2018-01-18T13:08:22.689Z,800
2018-01-18T13:09:22.297Z,1555
2018-01-18T13:10:22.230Z,1995
2018-01-18T13:11:22.759Z,1340
2018-01-18T13:12:23.042Z,2275
2018-01-18T13:13:22.557Z,2205
2018-01-18T13:14:22.887Z,960
2018-01-18T13:15:22.851Z,1845
2018-01-18T13:16:22.375Z,2425
2018-01-18T13:17:22.897Z,2245
2018-01-18T13:18:22.682Z,1385
2018-01-18T13:19:23.208Z,2175
2018-01-18T13:20:22.743Z,1895
2018-01-18T13:21:23.011Z,2545
2018-01-18T13:22:23.043Z,2630
2018-01-18T13:23:23.305Z,1130
2018-01-18T13:24:23.350Z,1605
2018-01-18T13:25:22.855Z,1750
2018-01-18T13:26:22.884Z,870
2018-01-18T13:27:23.160Z,2055
2018-01-18T13:28:23.432Z,1500
2018-01-18T13:29:22.752Z,2005
2018-01-18T13:30:22.727Z,2670
2018-01-18T13:31:23.505Z,2465
2018-01-18T13:32:23.030Z,2495
2018-01-18T13:33:23.561Z,2435
2018-01-18T13:34:23.340Z,1010
2018-01-18T13:35:23.128Z,2410
2018-01-18T13:36:23.132Z,2380
2018-01-18T13:37:23.432Z,2350
2018-01-18T13:38:23.434Z,2320
2018-01-18T13:39:23.470Z,2400
2018-01-18T13:40:23.484Z,2300
2018-01-18T13:41:23.010Z,1580
2018-01-18T13:42:23.308Z,355
2018-01-18T13:43:23.303Z,2090
2018-01-18T13:44:23.438Z,2050
2018-01-18T13:45:23.358Z,1990
2018-01-18T13:46:23.389Z,1825
2018-01-18T13:47:23.163Z,1410
2018-01-18T13:48:23.443Z,905
2018-01-18T13:49:24.020Z,490
2018-01-18T13:50:23.270Z,220
2018-01-18T13:51:23.526Z,165
2018-01-18T13:52:24.062Z,160
2018-01-18T13:53:23.319Z,170
2018-01-18T13:54:23.859Z,165
2018-01-18T13:55:23.126Z,160
2018-01-18T13:56:23.912Z,195
2018-01-18T13:57:24.363Z,155
2018-01-18T13:58:23.678Z,155
2018-01-18T13:59:23.764Z,145
2018-01-18T14:00:24.230Z,145
2018-01-18T14:01:23.761Z,140
2018-01-18T14:02:24.028Z,140
2018-01-18T14:03:24.045Z,140
2018-01-18T14:04:24.318Z,140
2018-01-18T14:05:24.089Z,140
2018-01-18T14:06:23.861Z,140
2018-01-18T14:07:24.380Z,135
2018-01-18T14:08:24.158Z,135
2018-01-18T14:09:23.412Z,135
2018-01-18T14:10:24.201Z,140
2018-01-18T14:11:24.212Z,135
2018-01-18T14:12:23.717Z,145
2018-01-18T14:13:23.489Z,140
2018-01-18T14:14:23.569Z,150
2018-01-18T14:15:24.038Z,155
2018-01-18T14:16:24.293Z,135
2018-01-18T14:17:24.327Z,130